Latest Weather Observations for Darwin Airport

IDD60801

Issued at 9:05 pm CST Tuesday 21 October 2014 (issued every 30 minutes, with the page automatically refreshed every 10 minutes)

About weather observations | Map of weather stations | Latest weather observations for NT | Other Formats
Station Details ID: 014015 Name: DARWIN AIRPORT Lat: -12.42 Lon: 130.89 Height: 30.4 m
Data from the previous 72 hours. | See also: Recent months at Darwin Airport
Date/Time
CST
Temp
°C
App
Temp
°C
Dew
Point
Rel
Hum
%
Delta-T
°C
Wind Press
QNH
hPa
Press
MSL
hPa
Rain
since 9 am
mm
Dir
 
Spd
km/h
Gust
km/h
Spd
kts
Gust
kts
21/09:00pm 26.6 28.1 18.8 62 5.0 E 9 11 5 6 1013.5 1013.2 0.0
21/08:30pm 27.8 30.9 18.6 57 5.9 NNW 0 0 0 0 1013.1 - 0.0
21/08:00pm 29.1 31.2 19.3 55 6.4 NW 7 9 4 5 1012.5 - 0.0
21/07:30pm 29.8 30.4 16.9 45 8.1 W 9 11 5 6 1012.4 - 0.0
21/07:00pm 30.6 30.4 15.6 40 9.3 NNW 11 11 6 6 1012.0 - 0.0
21/06:30pm 30.9 30.5 15.2 38 9.7 NNW 11 13 6 7 1011.6 - 0.0
21/06:00pm 31.5 30.8 15.3 37 10.0 N 13 19 7 10 1011.4 1011.1 0.0
21/05:30pm 31.7 30.0 14.6 35 10.5 N 17 24 9 13 1011.0 - 0.0
21/05:00pm 31.8 29.2 15.8 38 10.0 NNE 24 32 13 17 1010.7 - 0.0
21/04:30pm 32.1 29.6 17.2 41 9.5 N 26 32 14 17 1010.6 - 0.0
21/04:00pm 32.0 29.6 17.3 41 9.4 N 26 33 14 18 1010.8 - 0.0
21/03:30pm 32.7 31.0 18.2 42 9.4 N 24 30 13 16 1011.1 - 0.0
21/03:00pm 32.7 30.7 18.4 42 9.3 NNW 26 32 14 17 1011.4 1011.1 0.0
21/02:30pm 32.1 30.5 19.3 46 8.4 NNW 26 32 14 17 1011.6 - 0.0
21/02:00pm 32.2 30.2 18.3 43 9.0 N 26 35 14 19 1012.2 - 0.0
21/01:30pm 32.6 30.3 16.6 38 10.1 NNW 24 32 13 17 1012.9 - 0.0
21/01:00pm 32.7 30.8 17.6 40 9.7 NNW 24 30 13 16 1013.4 - 0.0
21/12:30pm 32.2 31.6 19.8 48 8.2 NW 22 28 12 15 1014.2 - 0.0
21/12:00pm 33.0 31.4 12.8 29 12.1 ENE 13 20 7 11 1014.8 1014.5 0.0
21/11:30am 33.1 31.1 15.0 33 11.2 E 19 26 10 14 1015.2 - 0.0
21/11:00am 32.4 30.4 15.5 36 10.5 ENE 20 28 11 15 1015.6 - 0.0
21/10:30am 31.5 30.0 17.8 44 8.8 ENE 22 33 12 18 1016.1 - 0.0
21/10:00am 30.6 30.2 19.3 51 7.4 E 20 30 11 16 1016.4 - 0.0
21/09:30am 29.6 29.6 20.2 57 6.2 ENE 20 28 11 15 1016.5 - 0.0
21/09:00am 29.4 29.7 20.3 58 6.0 ENE 19 24 10 13 1016.0 1015.7 0.0
21/08:30am 28.9 30.1 21.4 64 5.0 NE 17 19 9 10 1015.6 - 0.0
21/08:00am 27.7 30.4 22.2 72 3.7 NE 11 15 6 8 1015.4 - 0.0
21/07:30am 26.6 30.0 22.0 76 3.1 ENE 7 11 4 6 1015.1 - 0.0
21/07:00am 25.0 28.4 22.0 83 2.0 E 7 9 4 5 1014.8 - 0.0
21/06:30am 24.1 27.0 21.8 87 1.5 E 9 9 5 5 1014.6 - 0.0
21/06:00am 23.9 26.7 21.5 86 1.6 ENE 9 11 5 6 1014.2 1013.9 0.0
21/05:30am 24.3 27.1 21.6 85 1.8 ENE 9 9 5 5 1014.0 - 0.0
21/05:00am 24.4 27.2 21.5 84 1.9 NE 9 11 5 6 1013.9 - 0.0
21/04:30am 24.5 26.9 21.6 84 1.9 ENE 11 13 6 7 1013.8 - 0.0
21/04:00am 24.6 27.7 22.1 86 1.7 ENE 9 13 5 7 1013.8 - 0.0
21/03:30am 24.8 27.4 22.0 84 1.9 ENE 11 13 6 7 1013.6 - 0.0
21/03:00am 25.2 28.4 22.4 84 1.9 ENE 9 9 5 5 1013.6 1013.3 0.0
21/02:30am 25.6 27.9 22.0 80 2.4 NE 13 15 7 8 1013.7 - 0.0
21/02:00am 25.7 29.2 22.1 80 2.4 NNE 7 11 4 6 1014.1 - 0.0
21/01:30am 26.6 29.8 22.4 78 2.8 NNW 9 13 5 7 1014.0 - 0.0
21/01:00am 27.3 30.0 22.1 73 3.5 NNW 11 15 6 8 1014.2 - 0.0
21/12:30am 27.8 29.8 22.2 71 3.8 NNW 15 19 8 10 1014.3 - 0.0
21/12:00am 28.0 29.2 22.2 70 3.9 NNW 19 26 10 14 1014.4 1014.1 0.0
 
Date/Time
CST
Temp
°C
App
Temp
°C
Dew
Point
Rel
Hum
%
Delta-T
°C
Wind Press
QNH
hPa
Press
MSL
hPa
Rain
since 9 am
mm
Dir
 
Spd
km/h
Gust
km/h
Spd
kts
Gust
kts
20/11:30pm 28.1 28.4 22.3 70 3.9 NNW 24 32 13 17 1014.4 - 0.0
20/11:00pm 28.1 28.3 22.8 73 3.6 NNW 26 35 14 19 1014.2 - 0.0
20/10:30pm 27.2 28.8 20.8 68 4.2 NNE 13 17 7 9 1013.9 - 0.0
20/10:00pm 26.9 27.7 19.8 65 4.6 NE 15 19 8 10 1013.7 - 0.0
20/09:30pm 26.8 27.1 18.0 58 5.6 ENE 13 15 7 8 1013.4 - 0.0
20/09:00pm 26.0 27.8 19.5 67 4.2 ENE 9 11 5 6 1013.1 1012.8 0.0
20/08:30pm 27.2 28.7 19.0 61 5.3 NNE 9 11 5 6 1012.7 - 0.0
20/08:00pm 27.9 29.6 19.4 60 5.5 N 9 11 5 6 1012.2 - 0.0
20/07:30pm 29.3 30.5 18.2 51 7.1 N 9 9 5 5 1011.7 - 0.0
20/07:00pm 30.0 30.3 17.0 45 8.2 N 11 13 6 7 1011.2 - 0.0
20/06:30pm 30.6 30.0 15.6 40 9.3 NNW 13 17 7 9 1010.9 - 0.0
20/06:00pm 31.6 30.0 14.9 36 10.3 NNW 17 20 9 11 1010.5 1010.2 0.0
20/05:30pm 31.6 29.0 13.8 34 10.8 N 20 28 11 15 1010.0 - 0.0
20/05:00pm 32.0 28.6 14.8 35 10.6 N 26 32 14 17 1009.6 - 0.0
20/04:30pm 32.5 28.8 15.9 36 10.4 N 30 35 16 19 1009.5 - 0.0
20/04:00pm 32.3 29.7 16.9 39 9.8 NNE 26 33 14 18 1009.6 - 0.0
20/03:30pm 32.3 29.8 18.1 42 9.2 N 28 33 15 18 1009.9 - 0.0
20/03:00pm 32.0 31.2 20.1 49 7.9 N 24 33 13 18 1010.2 1009.9 0.0
20/02:30pm 31.0 30.5 20.7 54 6.9 N 24 30 13 16 1010.5 - 0.0
20/02:00pm 31.5 30.6 20.7 52 7.2 NNW 26 35 14 19 1010.9 - 0.0
20/01:30pm 31.7 30.0 19.9 49 7.8 NNW 28 33 15 18 1011.8 - 0.0
20/01:00pm 32.3 31.4 19.9 48 8.2 NW 24 30 13 16 1012.2 - 0.0
20/12:30pm 32.0 31.4 20.6 51 7.6 WNW 24 33 13 18 1013.1 - 0.0
20/12:00pm 33.6 32.7 13.7 30 12.1 SW 11 17 6 9 1013.5 1013.2 0.0
20/11:30am 33.1 30.6 13.4 30 11.9 E 19 26 10 14 1014.0 - 0.0
20/11:00am 32.4 29.5 15.1 35 10.7 E 24 35 13 19 1014.4 - 0.0
20/10:30am 32.3 31.2 17.8 42 9.3 ESE 20 26 11 14 1014.9 - 0.0
20/10:00am 31.0 29.7 17.3 43 8.7 ENE 20 30 11 16 1015.3 - 0.0
20/09:30am 29.9 31.3 21.9 62 5.4 ENE 17 26 9 14 1015.3 - 0.0
20/09:00am 29.0 31.8 23.0 70 4.1 ENE 13 19 7 10 1015.1 1014.8 4.2
20/08:30am 28.1 31.6 22.8 73 3.6 ENE 9 13 5 7 1015.1 - 4.0
20/08:00am 27.3 30.2 23.2 78 2.8 E 13 17 7 9 1014.9 - 4.0
20/07:30am 26.7 30.2 23.6 83 2.1 ESE 11 13 6 7 1014.5 - 4.0
20/07:00am 25.8 29.3 23.6 88 1.5 ESE 11 13 6 7 1014.1 - 4.0
20/06:30am 25.5 29.6 23.9 91 1.1 SE 9 9 5 5 1013.9 - 4.0
20/06:00am 25.6 30.2 24.1 91 1.0 SE 7 9 4 5 1013.7 1013.4 4.0
20/05:30am 25.5 30.4 24.3 93 0.8 ESE 6 7 3 4 1013.5 - 4.0
20/05:00am 25.7 29.7 23.8 89 1.3 SE 9 11 5 6 1013.2 - 4.0
20/04:30am 25.9 29.9 23.7 88 1.5 ESE 9 11 5 6 1013.0 - 4.0
20/04:00am 25.8 28.6 23.6 88 1.5 ENE 15 17 8 9 1013.0 - 4.0
20/03:30am 26.0 30.0 23.8 88 1.5 E 9 13 5 7 1013.0 - 4.0
20/03:00am 26.0 29.8 24.1 89 1.3 ENE 11 13 6 7 1012.7 1012.4 4.0
20/02:30am 26.1 29.5 24.7 92 1.0 NE 15 17 8 9 1012.9 - 4.0
20/02:00am 26.1 30.1 24.4 90 1.2 NNE 11 15 6 8 1013.0 - 4.0
20/01:30am 25.9 30.0 24.5 92 1.0 NNE 11 13 6 7 1013.2 - 4.0
20/01:00am 25.6 30.5 24.3 92 0.9 E 6 15 3 8 1013.6 - 4.0
20/12:30am 25.9 29.4 24.2 90 1.2 NE 13 17 7 9 1013.8 - 0.6
20/12:00am 27.6 30.5 23.2 77 3.0 N 13 15 7 8 1013.9 1013.6 0.0
 
Date/Time
CST
Temp
°C
App
Temp
°C
Dew
Point
Rel
Hum
%
Delta-T
°C
Wind Press
QNH
hPa
Press
MSL
hPa
Rain
since 9 am
mm
Dir
 
Spd
km/h
Gust
km/h
Spd
kts
Gust
kts
19/11:30pm 28.8 32.1 22.5 68 4.3 NW 9 15 5 8 1013.9 - 0.0
19/11:00pm 28.5 31.3 23.7 75 3.3 W 15 17 8 9 1013.9 - 0.0
19/10:30pm 28.5 30.3 23.6 75 3.4 WSW 20 26 11 14 1013.8 - 0.0
19/10:00pm 28.6 30.0 23.5 74 3.5 W 22 32 12 17 1013.4 - 0.0
19/09:30pm 28.8 30.5 24.0 75 3.3 W 22 30 12 16 1013.0 - 0.0
19/09:00pm 29.0 31.1 22.5 68 4.4 N 15 19 8 10 1012.5 1012.2 0.0
19/08:30pm 28.7 30.8 22.4 68 4.3 NE 15 19 8 10 1012.0 - 0.0
19/08:00pm 29.0 30.5 21.2 62 5.2 NNE 15 19 8 10 1011.6 - 0.0
19/07:30pm 29.4 29.6 20.5 58 5.9 NNE 20 30 11 16 1010.9 - 0.0
19/07:00pm 29.8 28.5 19.9 55 6.5 NNE 26 33 14 18 1010.4 - 0.0
19/06:30pm 30.3 28.5 19.6 52 7.0 NNE 28 37 15 20 1009.9 - 0.0
19/06:00pm 31.0 28.9 19.0 48 7.8 NNE 28 35 15 19 1009.7 1009.4 0.0
19/05:30pm 31.8 30.0 18.7 45 8.5 NNE 26 33 14 18 1009.5 - 0.0
19/05:00pm 31.9 29.1 18.3 44 8.8 NNE 30 39 16 21 1009.3 - 0.0
19/04:30pm 32.3 29.7 18.6 44 8.9 NNE 30 37 16 20 1009.4 - 0.0
19/04:00pm 32.6 30.5 19.8 46 8.5 N 30 39 16 21 1009.5 - 0.0
19/03:30pm 31.9 30.6 20.7 51 7.5 N 28 32 15 17 1009.7 - 0.0
19/03:00pm 31.8 30.6 20.9 52 7.3 N 28 33 15 18 1009.8 1009.5 0.0
19/02:30pm 32.8 32.2 20.5 48 8.2 N 24 30 13 16 1010.0 - 0.0
19/02:00pm 32.4 31.1 19.9 47 8.3 N 26 35 14 19 1010.4 - 0.0
19/01:30pm 34.2 32.1 17.2 36 10.9 N 24 30 13 16 1010.9 - 0.0
19/01:00pm 33.9 32.0 17.6 38 10.5 NE 24 35 13 19 1011.5 - 0.0
19/12:30pm 33.4 31.0 17.3 38 10.3 NE 26 37 14 20 1012.1 - 0.0
19/12:00pm 33.9 33.1 18.0 39 10.3 N 19 30 10 16 1012.8 1012.5 0.0
19/11:30am 33.4 32.4 18.9 42 9.5 N 22 28 12 15 1013.2 - 0.0
19/11:00am 33.1 32.7 19.3 44 9.1 ENE 20 32 11 17 1013.7 - 0.0
19/10:30am 31.6 31.5 19.9 50 7.7 NE 20 28 11 15 1014.1 - 0.0
19/10:00am 31.0 31.3 20.8 54 6.8 NE 20 33 11 18 1014.2 - 0.0
19/09:30am 30.5 30.9 20.6 55 6.6 ENE 19 30 10 16 1014.4 - 0.0
19/09:00am 29.4 29.6 21.3 61 5.4 ENE 22 33 12 18 1014.5 1014.2 0.0
19/08:30am 29.0 31.4 22.2 66 4.6 ENE 13 20 7 11 1014.5 - 0.0
19/08:00am 27.8 30.3 22.5 73 3.6 E 13 17 7 9 1014.3 - 0.0
19/07:30am 26.8 29.2 22.3 76 3.0 E 13 15 7 8 1014.0 - 0.0
19/07:00am 25.6 28.4 22.3 82 2.2 E 11 13 6 7 1013.4 - 0.0
19/06:30am 24.6 27.8 22.4 87 1.5 E 9 9 5 5 1013.1 - 0.0
19/06:00am 25.0 27.8 22.3 85 1.8 E 11 13 6 7 1013.0 1012.7 0.0
19/05:30am 24.7 28.3 22.3 86 1.6 E 7 9 4 5 1012.7 - 0.0
19/05:00am 24.9 26.9 22.2 85 1.8 E 15 19 8 10 1012.6 - 0.0
19/04:30am 25.3 27.3 22.2 83 2.1 E 15 17 8 9 1012.5 - 0.0
19/04:00am 25.6 28.0 22.2 81 2.3 E 13 15 7 8 1012.3 - 0.0
19/03:30am 25.0 28.0 22.6 86 1.6 ENE 11 13 6 7 1012.2 - 0.0
19/03:00am 25.1 28.2 22.9 87 1.5 NE 11 13 6 7 1012.2 1011.9 0.0
19/02:30am 25.0 29.0 22.8 87 1.5 NNE 6 7 3 4 1012.0 - 0.0
19/02:00am 25.4 29.3 22.9 86 1.7 N 7 9 4 5 1012.0 - 0.0
19/01:30am 25.8 29.9 23.0 84 1.9 N 6 9 3 5 1012.2 - 0.0
19/01:00am 27.1 30.7 23.0 78 2.8 W 9 9 5 5 1012.4 - 0.0
19/12:30am 27.5 30.7 23.1 77 3.0 WNW 11 13 6 7 1012.6 - 0.0
19/12:00am 28.0 30.8 23.0 74 3.4 NW 13 17 7 9 1012.7 1012.4 0.0
 
Date/Time
CST
Temp
°C
App
Temp
°C
Dew
Point
Rel
Hum
%
Delta-T
°C
Wind Press
QNH
hPa
Press
MSL
hPa
Rain
since 9 am
mm
Dir
 
Spd
km/h
Gust
km/h
Spd
kts
Gust
kts
18/11:30pm 28.1 30.0 23.4 75 3.2 WNW 19 22 10 12 1012.9 - 0.0
18/11:00pm 28.3 29.9 23.3 74 3.4 NW 20 26 11 14 1013.0 - 0.0
18/10:30pm 28.4 30.0 23.3 74 3.5 WNW 20 26 11 14 1012.9 - 0.0
18/10:00pm 27.9 29.1 22.1 70 3.9 WNW 19 24 10 13 1012.7 - 0.0
18/09:30pm 26.8 28.7 20.6 69 4.1 ENE 11 13 6 7 1012.3 - 0.0

Other Formats:

Comma delimited format used in spreadsheet applications
http://www.bom.gov.au/fwo/IDD60801/IDD60801.94120.axf

JavaScript Object Notation format (JSON) in row-major order
http://www.bom.gov.au/fwo/IDD60801/IDD60801.94120.json